createdAt,value
2023-03-22T00:00:56.682Z,28.67
2023-03-22T00:03:24.475Z,32.27
2023-03-22T00:05:57.999Z,29.07
2023-03-22T00:08:25.324Z,27.47
2023-03-22T00:10:52.688Z,29.37
2023-03-22T00:13:20.244Z,27.47
2023-03-22T00:15:49.436Z,28.53
2023-03-22T00:18:17.242Z,29.57
2023-03-22T00:20:49.173Z,30.97
2023-03-22T00:23:16.645Z,30.43
2023-03-22T00:25:47.686Z,28.03
2023-03-22T00:28:16.668Z,31.87
2023-03-22T00:30:51.403Z,29.53
2023-03-22T00:33:18.975Z,28.87
2023-03-22T00:35:53.728Z,30.03
2023-03-22T00:38:32.531Z,27.37
2023-03-22T00:41:18.638Z,27.20
2023-03-22T00:43:47.599Z,24.87
2023-03-22T00:46:17.352Z,26.50
2023-03-22T00:48:45.167Z,33.27
2023-03-22T00:51:13.849Z,29.67
2023-03-22T00:53:43.334Z,30.53
2023-03-22T00:56:14.469Z,28.77
2023-03-22T00:58:44.238Z,27.73
2023-03-22T01:01:14.830Z,28.27
2023-03-22T01:03:43.857Z,26.57
2023-03-22T01:06:11.999Z,27.37
2023-03-22T01:08:39.534Z,27.20
2023-03-22T01:11:07.974Z,27.73
2023-03-22T01:13:38.017Z,26.77
2023-03-22T01:16:07.040Z,28.33
2023-03-22T01:18:35.191Z,27.40
2023-03-22T01:21:02.878Z,27.53
2023-03-22T01:23:30.557Z,32.27
2023-03-22T01:25:57.838Z,31.00
2023-03-22T01:28:27.031Z,30.87
2023-03-22T01:30:55.461Z,32.97
2023-03-22T01:33:22.973Z,32.13
2023-03-22T01:35:50.209Z,35.13
2023-03-22T01:38:18.454Z,32.97
2023-03-22T01:40:45.911Z,32.97
2023-03-22T01:43:17.507Z,30.97
2023-03-22T01:45:48.648Z,30.27
2023-03-22T01:48:25.554Z,30.57
2023-03-22T01:51:03.692Z,40.80
2023-03-22T01:53:36.680Z,36.07
2023-03-22T01:56:04.537Z,34.83
2023-03-22T01:58:34.811Z,34.10
2023-03-22T02:01:04.076Z,36.80
2023-03-22T02:03:59.040Z,44.00
2023-03-22T02:06:30.152Z,39.83
2023-03-22T02:08:59.356Z,34.27
2023-03-22T02:11:34.262Z,39.43
2023-03-22T02:14:23.527Z,34.03
2023-03-22T02:16:54.521Z,37.70
2023-03-22T02:19:55.794Z,34.87
2023-03-22T02:22:28.782Z,33.73
2023-03-22T02:25:10.983Z,38.57
2023-03-22T02:28:04.528Z,32.70
2023-03-22T02:30:46.542Z,31.90
2023-03-22T02:33:35.526Z,32.30
2023-03-22T02:36:33.119Z,35.97
2023-03-22T02:39:13.110Z,34.40
2023-03-22T02:42:01.266Z,32.17
2023-03-22T02:44:51.683Z,34.37
2023-03-22T02:47:34.669Z,32.50
2023-03-22T02:50:29.725Z,35.07
2023-03-22T02:53:17.984Z,34.20
2023-03-22T02:55:51.148Z,32.23
2023-03-22T02:58:40.038Z,33.57
2023-03-22T03:01:36.377Z,34.20
2023-03-22T03:04:09.136Z,32.47
2023-03-22T03:06:40.595Z,33.17
2023-03-22T03:09:09.092Z,33.40
2023-03-22T03:11:36.874Z,32.13
2023-03-22T03:14:04.136Z,31.93
2023-03-22T03:16:35.308Z,34.00
2023-03-22T03:19:23.587Z,34.33
2023-03-22T03:22:17.746Z,33.10
2023-03-22T03:25:07.105Z,32.80
2023-03-22T03:27:41.563Z,34.67
2023-03-22T03:30:22.149Z,35.03
2023-03-22T03:32:59.442Z,35.30
2023-03-22T03:36:00.569Z,36.50
2023-03-22T03:38:31.737Z,35.73
2023-03-22T03:41:07.465Z,36.67
2023-03-22T03:43:35.963Z,38.13
2023-03-22T03:46:03.808Z,36.40
2023-03-22T03:48:34.229Z,37.77
2023-03-22T03:51:02.550Z,34.47
2023-03-22T03:53:30.842Z,36.07
2023-03-22T03:55:59.214Z,35.10
2023-03-22T03:58:27.600Z,35.57
2023-03-22T04:00:55.932Z,34.50
2023-03-22T04:03:23.334Z,35.40
2023-03-22T04:05:50.487Z,33.87
2023-03-22T04:08:17.679Z,33.60
2023-03-22T04:10:50.951Z,35.40
2023-03-22T04:13:21.653Z,33.40
2023-03-22T04:15:54.302Z,34.60
2023-03-22T04:18:21.861Z,41.90
2023-03-22T04:20:49.796Z,36.23
2023-03-22T04:23:17.915Z,34.00
2023-03-22T04:25:50.726Z,34.20
2023-03-22T04:28:20.007Z,36.23
2023-03-22T04:30:53.088Z,35.37
2023-03-22T04:33:23.236Z,35.33
2023-03-22T04:35:57.338Z,35.13
2023-03-22T04:38:25.554Z,36.60
2023-03-22T04:40:52.894Z,35.97
2023-03-22T04:43:20.425Z,37.57
2023-03-22T04:45:51.545Z,34.67
2023-03-22T04:48:22.421Z,36.30
2023-03-22T04:50:56.336Z,36.33
2023-03-22T04:53:27.730Z,37.43
2023-03-22T04:55:59.673Z,36.10
2023-03-22T04:58:28.146Z,37.97
2023-03-22T05:00:59.405Z,39.87
2023-03-22T05:03:26.641Z,37.37
2023-03-22T05:05:56.655Z,38.97
2023-03-22T05:08:25.740Z,39.40
2023-03-22T05:10:57.616Z,38.37
2023-03-22T05:13:27.764Z,56.70
2023-03-22T05:15:55.196Z,39.13
2023-03-22T05:18:28.769Z,38.80
2023-03-22T05:20:57.471Z,41.30
2023-03-22T05:23:26.681Z,41.27
2023-03-22T05:25:55.370Z,43.87
2023-03-22T05:28:25.329Z,47.27
2023-03-22T05:30:54.276Z,55.63
2023-03-22T05:33:22.969Z,64.77
2023-03-22T05:35:51.439Z,63.17
2023-03-22T05:38:18.791Z,64.37
2023-03-22T05:40:46.900Z,57.83
2023-03-22T05:43:14.692Z,55.93
2023-03-22T05:45:42.091Z,53.37
2023-03-22T05:48:09.939Z,51.87
2023-03-22T05:50:37.592Z,53.07
2023-03-22T05:53:05.353Z,50.20
2023-03-22T05:55:32.694Z,53.43
2023-03-22T05:58:01.592Z,55.00
2023-03-22T06:00:32.204Z,55.43
2023-03-22T06:03:04.004Z,64.70
2023-03-22T06:05:33.119Z,76.07
2023-03-22T06:08:00.465Z,81.87
2023-03-22T06:10:29.272Z,81.23
2023-03-22T06:12:57.019Z,67.40
2023-03-22T06:15:24.306Z,63.93
2023-03-22T06:17:51.765Z,52.37
2023-03-22T06:20:19.773Z,45.03
2023-03-22T06:22:46.947Z,43.33
2023-03-22T06:25:17.284Z,45.20
2023-03-22T06:27:47.374Z,44.57
2023-03-22T06:30:14.809Z,43.57
2023-03-22T06:32:42.098Z,49.27
2023-03-22T06:35:09.524Z,49.20
2023-03-22T06:37:36.851Z,49.90
2023-03-22T06:40:05.144Z,50.57
2023-03-22T06:42:35.074Z,48.73
2023-03-22T06:45:02.546Z,45.70
2023-03-22T06:47:29.902Z,46.70
2023-03-22T06:49:57.696Z,48.23
2023-03-22T06:52:25.214Z,47.10
2023-03-22T06:54:52.485Z,47.53
2023-03-22T06:57:20.345Z,48.23
2023-03-22T06:59:47.804Z,49.13
2023-03-22T07:02:15.430Z,64.00
2023-03-22T07:04:43.272Z,50.40
2023-03-22T07:07:10.548Z,46.90
2023-03-22T07:09:38.992Z,47.27
2023-03-22T07:12:07.416Z,44.40
2023-03-22T07:14:35.123Z,46.77
2023-03-22T07:17:02.586Z,43.47
2023-03-22T07:19:30.051Z,45.77
2023-03-22T07:21:57.797Z,43.63
2023-03-22T07:24:25.251Z,45.50
2023-03-22T07:26:52.497Z,42.77
2023-03-22T07:29:20.344Z,49.10
2023-03-22T07:31:47.837Z,47.50
2023-03-22T07:34:15.383Z,48.43
2023-03-22T07:36:42.948Z,46.07
2023-03-22T07:39:10.819Z,43.47
2023-03-22T07:41:38.192Z,46.20
2023-03-22T07:44:17.194Z,43.83
2023-03-22T07:46:45.115Z,45.13
2023-03-22T07:49:12.765Z,44.87
2023-03-22T07:51:39.970Z,46.60
2023-03-22T07:54:07.878Z,43.73
2023-03-22T07:56:35.840Z,41.23
2023-03-22T07:59:03.936Z,41.50
2023-03-22T08:01:31.286Z,42.30
2023-03-22T08:03:58.925Z,43.33
2023-03-22T08:06:26.290Z,42.10
2023-03-22T08:08:53.778Z,37.73
2023-03-22T08:11:21.881Z,39.43
2023-03-22T08:13:49.782Z,38.73
2023-03-22T08:16:18.248Z,37.43
2023-03-22T08:18:45.741Z,37.20
2023-03-22T08:21:13.029Z,36.83
2023-03-22T08:23:42.456Z,34.47
2023-03-22T08:26:11.435Z,35.17
2023-03-22T08:28:38.855Z,34.10
2023-03-22T08:31:18.767Z,31.13
2023-03-22T08:33:47.242Z,30.50
2023-03-22T08:36:17.725Z,30.77
2023-03-22T08:38:46.160Z,31.17
2023-03-22T08:41:14.018Z,30.23
2023-03-22T08:43:41.904Z,28.80
2023-03-22T08:46:09.801Z,29.60
2023-03-22T08:48:38.205Z,30.23
2023-03-22T08:51:06.863Z,25.77
2023-03-22T08:53:34.650Z,25.00
2023-03-22T08:56:02.598Z,24.23
2023-03-22T08:58:30.270Z,23.37
2023-03-22T09:00:57.800Z,23.60
2023-03-22T09:03:25.176Z,21.97
2023-03-22T09:05:52.741Z,22.30
2023-03-22T09:08:20.707Z,18.07
2023-03-22T09:10:52.191Z,19.23
2023-03-22T09:13:20.756Z,17.23
2023-03-22T09:15:48.463Z,12.43
2023-03-22T09:18:16.509Z,9.40
2023-03-22T09:20:45.069Z,8.40
2023-03-22T09:23:13.661Z,9.00
2023-03-22T09:25:44.502Z,10.13
2023-03-22T09:28:12.695Z,8.53
2023-03-22T09:30:40.310Z,9.83
2023-03-22T09:33:07.671Z,11.67
2023-03-22T09:35:35.056Z,10.53
2023-03-22T09:38:03.797Z,10.43
2023-03-22T09:40:33.864Z,10.60
2023-03-22T09:43:08.292Z,11.43
2023-03-22T09:45:41.338Z,11.87
2023-03-22T09:48:22.973Z,11.40
2023-03-22T09:50:54.296Z,10.63
2023-03-22T09:53:24.765Z,11.03
2023-03-22T09:56:04.057Z,11.30
2023-03-22T09:58:45.878Z,10.80
2023-03-22T10:01:35.627Z,11.67
2023-03-22T10:04:29.225Z,10.70
2023-03-22T10:07:27.493Z,12.37
2023-03-22T10:10:09.531Z,11.57
2023-03-22T10:13:09.245Z,11.73
2023-03-22T10:15:41.144Z,11.27
2023-03-22T10:18:22.704Z,8.02
2023-03-22T10:21:09.486Z,5.10
2023-03-22T10:23:49.587Z,4.87
2023-03-22T10:26:30.387Z,5.05
2023-03-22T10:29:06.850Z,5.43
2023-03-22T10:31:34.673Z,5.20
2023-03-22T10:34:11.915Z,5.10
2023-03-22T10:36:40.611Z,5.10
2023-03-22T10:39:19.218Z,13.63
2023-03-22T10:41:47.905Z,4.72
2023-03-22T10:44:19.631Z,4.20
2023-03-22T10:46:49.539Z,4.28
2023-03-22T10:49:30.422Z,4.38
2023-03-22T10:52:04.765Z,4.80
2023-03-22T10:54:32.877Z,4.82
2023-03-22T10:57:00.208Z,4.78
2023-03-22T10:59:47.726Z,4.80
2023-03-22T11:02:33.595Z,4.15
2023-03-22T11:05:04.199Z,3.88
2023-03-22T11:07:45.626Z,3.75
2023-03-22T11:10:18.782Z,3.80
2023-03-22T11:12:54.007Z,4.30
2023-03-22T11:15:25.403Z,4.45
2023-03-22T11:17:58.369Z,4.90
2023-03-22T11:20:26.266Z,4.88
2023-03-22T11:22:53.595Z,4.03
2023-03-22T11:25:32.076Z,3.75
2023-03-22T11:28:06.118Z,3.53
2023-03-22T11:30:34.726Z,4.40
2023-03-22T11:33:10.151Z,3.60
2023-03-22T11:35:39.991Z,3.70
2023-03-22T11:38:07.815Z,3.92
2023-03-22T11:40:37.808Z,3.28
2023-03-22T11:43:11.159Z,3.85
2023-03-22T11:45:43.465Z,4.05
2023-03-22T11:48:18.001Z,3.50
2023-03-22T11:50:46.866Z,3.75
2023-03-22T11:53:17.726Z,3.80
2023-03-22T11:55:46.950Z,3.42
2023-03-22T11:58:29.977Z,3.55
2023-03-22T12:01:02.548Z,3.50
2023-03-22T12:03:33.878Z,3.60
2023-03-22T12:06:13.538Z,3.08
2023-03-22T12:08:48.905Z,3.60
2023-03-22T12:11:36.588Z,2.72
2023-03-22T12:14:42.988Z,4.50
2023-03-22T12:17:37.164Z,2.83
2023-03-22T12:20:12.259Z,2.28
2023-03-22T12:22:43.681Z,2.35
2023-03-22T12:25:31.244Z,1.23
2023-03-22T12:28:12.235Z,1.30
2023-03-22T12:30:49.472Z,2.28
2023-03-22T12:33:23.348Z,1.77
2023-03-22T12:35:55.610Z,1.30
2023-03-22T12:38:29.969Z,1.33
2023-03-22T12:41:01.664Z,1.67
2023-03-22T12:43:40.067Z,1.20
2023-03-22T12:46:11.011Z,1.90
2023-03-22T12:48:49.692Z,1.53
2023-03-22T12:51:16.937Z,1.20
2023-03-22T12:53:57.681Z,1.50
2023-03-22T12:56:31.298Z,1.45
2023-03-22T12:59:03.387Z,1.40
2023-03-22T13:01:47.336Z,1.50
2023-03-22T13:04:32.078Z,1.38
2023-03-22T13:07:32.276Z,1.42
2023-03-22T13:10:01.081Z,1.60
2023-03-22T13:12:33.742Z,2.23
2023-03-22T13:15:28.505Z,1.77
2023-03-22T13:17:59.603Z,2.08
2023-03-22T13:20:29.125Z,1.80
2023-03-22T13:22:57.186Z,1.73
2023-03-22T13:25:36.197Z,1.43
2023-03-22T13:28:29.867Z,1.37
2023-03-22T13:30:59.165Z,1.10
2023-03-22T13:33:31.011Z,1.10
2023-03-22T13:36:25.731Z,1.30
2023-03-22T13:39:08.626Z,1.00
2023-03-22T13:41:36.972Z,1.30
2023-03-22T13:44:29.581Z,1.38
2023-03-22T13:47:01.944Z,1.38
2023-03-22T13:49:49.315Z,1.25
2023-03-22T13:52:46.897Z,0.90
2023-03-22T13:55:41.443Z,1.25
2023-03-22T13:58:50.867Z,0.90
2023-03-22T14:01:21.166Z,0.80
2023-03-22T14:03:52.753Z,1.00
2023-03-22T14:06:24.943Z,0.90
2023-03-22T14:08:58.610Z,0.85
2023-03-22T14:11:46.257Z,0.93
2023-03-22T14:14:20.600Z,0.80
2023-03-22T14:16:51.947Z,1.20
2023-03-22T14:19:23.544Z,0.90
